Time;durP1;ratioP1;P1;durP2;ratioP2;P2;SDS_P1;SDS_P2;PMS_P1;PMS_P2;Temp;Humidity;BMP_temperature;BMP_pressure;BME280_temperature;BME280_humidity;BME280_pressure;Samples;Min_cycle;Max_cycle;Signal;HPM_P1;HPM_P2
2023/03/17 00:01:27;;;;;;;;;;;;;;;;;;5068342;28;20371;-65
2023/03/17 00:03:54;;;;;;;;;;;;;;;;;;5067662;28;19924;-64
2023/03/17 00:06:19;;;;;;;;;;;;;;;;;;5066930;28;20019;-66
2023/03/17 00:08:46;;;;;;;;;;;;;;;;;;5064441;28;20007;-65
2023/03/17 00:11:12;;;;;;;;;;;;;;;;;;5047533;28;20012;-66
2023/03/17 00:13:38;;;;;;;;;;;;;;;;;;5062137;28;19924;-66
2023/03/17 00:16:04;;;;;;;;;;;;;;;;;;5067275;28;19978;-66
2023/03/17 00:18:32;;;;;;;;;;;;;;;;;;5068416;28;19925;-66
2023/03/17 00:20:58;;;;;;;;;;;;;;;;;;5062941;28;19924;-66
2023/03/17 00:23:25;;;;;;;;;;;;;;;;;;5066877;28;19967;-65
2023/03/17 00:25:52;;;;;;;;;;;;;;;;;;5038613;28;19976;-65
2023/03/17 00:28:19;;;;;;;;;;;;;;;;;;5070169;28;19921;-65
2023/03/17 00:30:46;;;;;;;;;;;;;;;;;;5046114;28;20053;-65
2023/03/17 00:33:12;;;;;;;;;;;;;;;;;;5067131;28;19928;-65
2023/03/17 00:35:39;;;;;;;;;;;;;;;;;;5049120;28;20316;-64
2023/03/17 00:38:05;;;;;;;;;;;;;;;;;;5062513;28;19978;-65
2023/03/17 00:40:31;;;;;;;;;;;;;;;;;;5059284;28;19947;-65
2023/03/17 00:42:57;;;;;;;;;;;;;;;;;;5061245;28;19931;-65
2023/03/17 00:45:23;;;;;;;;;;;;;;;;;;5026237;28;19932;-65
2023/03/17 00:47:49;;;;;;;;;;;;;;;;;;5046051;28;20310;-65
2023/03/17 00:50:14;;;;;;;;;;;;;;;;;;5067225;28;20011;-65
2023/03/17 00:52:40;;;;;;;;;;;;;;;;;;5048298;28;20015;-66
2023/03/17 00:55:07;;;;;;;;;;;;;;;;;;5048652;28;19956;-66
2023/03/17 00:57:34;;;;;;;;;;;;;;;;;;5064965;28;20038;-65
2023/03/17 01:00:00;;;;;;;;;;;;;;;;;;5063867;28;19928;-65
2023/03/17 01:02:26;;;;;;;;;;;;;;;;;;5050640;28;19929;-65
2023/03/17 01:04:52;;;;;;;;;;;;;;;;;;5074905;28;19932;-65
2023/03/17 01:07:18;;;;;;;;;;;;;;;;;;5050518;28;19967;-65
2023/03/17 01:09:44;;;;;;;;;;;;;;;;;;5044205;28;20034;-65
2023/03/17 01:12:10;;;;;;;;;;;;;;;;;;5065915;28;19928;-64
2023/03/17 01:14:36;;;;;;;;;;;;;;;;;;5063451;28;20355;-65
2023/03/17 01:17:02;;;;;;;;;;;;;;;;;;5067340;28;19924;-65
2023/03/17 01:19:28;;;;;;;;;;;;;;;;;;5047733;28;19926;-64
2023/03/17 01:21:53;;;;;;;;;;;;;;;;;;5048792;28;20370;-66
2023/03/17 01:24:19;;;;;;;;;;;;;;;;;;5068211;28;19975;-65
2023/03/17 01:26:45;;;;;;;;;;;;;;;;;;5033023;28;19920;-65
2023/03/17 01:29:12;;;;;;;;;;;;;;;;;;5066514;28;19924;-66
2023/03/17 01:31:38;;;;;;;;;;;;;;;;;;5063793;28;19999;-66
2023/03/17 01:34:05;;;;;;;;;;;;;;;;;;5067386;28;20008;-66
2023/03/17 01:36:30;;;;;;;;;;;;;;;;;;5051353;28;19985;-66
2023/03/17 01:38:57;;;;;;;;;;;;;;;;;;5062612;28;19925;-66
2023/03/17 01:41:23;;;;;;;;;;;;;;;;;;5056924;28;19956;-65
2023/03/17 01:43:50;;;;;;;;;;;;;;;;;;5068681;28;20392;-66
2023/03/17 01:46:16;;;;;;;;;;;;;;;;;;5061236;28;20058;-66
2023/03/17 01:48:41;;;;;;;;;;;;;;;;;;5060979;28;20035;-66
2023/03/17 01:51:07;;;;;;;;;;;;;;;;;;5064198;28;19967;-66
2023/03/17 01:53:34;;;;;;;;;;;;;;;;;;5037431;28;20362;-66
2023/03/17 01:56:00;;;;;;;;;;;;;;;;;;5065471;28;19996;-66
2023/03/17 01:58:26;;;;;;;;;;;;;;;;;;5054966;28;19928;-65
2023/03/17 02:00:52;;;;;;;;;;;;;;;;;;5044324;28;20045;-65
2023/03/17 02:03:18;;;;;;;;;;;;;;;;;;5048689;28;19935;-66
2023/03/17 02:05:44;;;;;;;;;;;;;;;;;;5066201;28;20481;-65
2023/03/17 02:08:10;;;;;;;;;;;;;;;;;;5036120;28;19924;-65
2023/03/17 02:10:36;;;;;;;;;;;;;;;;;;5052740;28;20286;-65
2023/03/17 02:13:04;;;;;;;;;;;;;;;;;;5070900;28;20262;-65
2023/03/17 02:15:30;;;;;;;;;;;;;;;;;;5066705;28;19966;-66
2023/03/17 02:17:56;;;;;;;;;;;;;;;;;;5072745;28;20343;-65
2023/03/17 02:20:22;;;;;;;;;;;;;;;;;;5048173;28;19920;-65
2023/03/17 02:22:48;;;;;;;;;;;;;;;;;;5069495;28;20453;-66
2023/03/17 02:25:14;;;;;;;;;;;;;;;;;;5068828;28;20411;-66
2023/03/17 02:27:40;;;;;;;;;;;;;;;;;;5060528;28;20012;-65
2023/03/17 02:30:06;;;;;;;;;;;;;;;;;;5067982;28;20011;-65
2023/03/17 02:32:32;;;;;;;;;;;;;;;;;;5051131;28;20032;-65
2023/03/17 02:34:58;;;;;;;;;;;;;;;;;;5072676;28;20449;-65
2023/03/17 02:37:24;;;;;;;;;;;;;;;;;;5069085;28;19965;-66
2023/03/17 02:39:50;;;;;;;;;;;;;;;;;;5044811;28;20305;-66
2023/03/17 02:42:16;;;;;;;;;;;;;;;;;;5070809;28;19924;-66
2023/03/17 02:44:42;;;;;;;;;;;;;;;;;;5072994;28;19928;-65
2023/03/17 02:47:08;;;;;;;;;;;;;;;;;;5048542;28;19928;-64
2023/03/17 02:49:34;;;;;;;;;;;;;;;;;;5066714;28;20483;-65
2023/03/17 02:52:00;;;;;;;;;;;;;;;;;;5041708;28;19920;-64
2023/03/17 02:54:26;;;;;;;;;;;;;;;;;;5052490;28;20017;-65
2023/03/17 02:56:52;;;;;;;;;;;;;;;;;;5069870;28;19920;-65
2023/03/17 02:59:18;;;;;;;;;;;;;;;;;;5043477;28;19920;-65
2023/03/17 03:01:44;;;;;;;;;;;;;;;;;;5052282;28;19924;-64
2023/03/17 03:04:10;;;;;;;;;;;;;;;;;;5067703;28;19928;-65
2023/03/17 03:06:38;;;;;;;;;;;;;;;;;;5058959;28;19929;-65
2023/03/17 03:09:04;;;;;;;;;;;;;;;;;;5059175;28;19920;-65
2023/03/17 03:11:30;;;;;;;;;;;;;;;;;;5062311;28;19928;-66
2023/03/17 03:13:56;;;;;;;;;;;;;;;;;;5068845;28;20301;-66
2023/03/17 03:16:22;;;;;;;;;;;;;;;;;;5063307;28;19928;-65
2023/03/17 03:18:48;;;;;;;;;;;;;;;;;;5067543;28;20387;-65
2023/03/17 03:21:14;;;;;;;;;;;;;;;;;;5066796;28;19959;-66
2023/03/17 03:23:40;;;;;;;;;;;;;;;;;;5049494;28;19924;-66
2023/03/17 03:26:06;;;;;;;;;;;;;;;;;;5063912;28;19924;-65
2023/03/17 03:28:32;;;;;;;;;;;;;;;;;;5067627;28;19928;-65
2023/03/17 03:30:58;;;;;;;;;;;;;;;;;;5065324;28;19924;-65
2023/03/17 03:33:24;;;;;;;;;;;;;;;;;;5070775;28;20373;-64
2023/03/17 03:35:50;;;;;;;;;;;;;;;;;;5068479;28;19978;-65
2023/03/17 03:38:16;;;;;;;;;;;;;;;;;;5062137;28;20376;-65
2023/03/17 03:40:42;;;;;;;;;;;;;;;;;;5034176;28;19931;-64
2023/03/17 03:43:07;;;;;;;;;;;;;;;;;;5067756;28;19960;-65
2023/03/17 03:45:33;;;;;;;;;;;;;;;;;;5061177;28;19927;-65
2023/03/17 03:47:59;;;;;;;;;;;;;;;;;;5063906;28;19925;-65
2023/03/17 03:50:25;;;;;;;;;;;;;;;;;;5066349;28;19929;-66
2023/03/17 03:52:51;;;;;;;;;;;;;;;;;;5048895;28;19927;-65
2023/03/17 03:55:17;;;;;;;;;;;;;;;;;;5040621;28;19921;-66
2023/03/17 03:57:43;;;;;;;;;;;;;;;;;;5065309;28;19924;-65
2023/03/17 04:00:10;;;;;;;;;;;;;;;;;;5067578;28;20377;-65
2023/03/17 04:02:35;;;;;;;;;;;;;;;;;;5037374;28;19925;-66
2023/03/17 04:05:01;;;;;;;;;;;;;;;;;;5071506;28;20544;-66
2023/03/17 04:07:27;;;;;;;;;;;;;;;;;;5069977;28;19964;-65
2023/03/17 04:09:53;;;;;;;;;;;;;;;;;;5065442;28;19920;-65
2023/03/17 04:12:19;;;;;;;;;;;;;;;;;;5071895;28;19920;-65
2023/03/17 04:14:45;;;;;;;;;;;;;;;;;;5055111;28;19920;-65
2023/03/17 04:17:11;;;;;;;;;;;;;;;;;;5056399;28;19932;-65
2023/03/17 04:19:37;;;;;;;;;;;;;;;;;;5071122;28;20343;-66
2023/03/17 04:22:03;;;;;;;;;;;;;;;;;;5065181;28;19921;-66
2023/03/17 04:24:29;;;;;;;;;;;;;;;;;;5063918;28;19928;-66
2023/03/17 04:26:55;;;;;;;;;;;;;;;;;;5064678;28;19992;-66
2023/03/17 04:29:21;;;;;;;;;;;;;;;;;;5070940;28;19928;-65
2023/03/17 04:31:47;;;;;;;;;;;;;;;;;;5076116;28;19921;-65
2023/03/17 04:34:14;;;;;;;;;;;;;;;;;;5059730;28;20018;-64
2023/03/17 04:36:41;;;;;;;;;;;;;;;;;;5039435;28;19964;-66
2023/03/17 04:39:07;;;;;;;;;;;;;;;;;;5060850;28;19975;-65
2023/03/17 04:41:33;;;;;;;;;;;;;;;;;;5065207;28;20006;-66
2023/03/17 04:43:59;;;;;;;;;;;;;;;;;;5053611;28;19952;-64
2023/03/17 04:46:25;;;;;;;;;;;;;;;;;;5062029;28;19934;-64
2023/03/17 04:48:51;;;;;;;;;;;;;;;;;;5062756;28;19938;-64
2023/03/17 04:51:17;;;;;;;;;;;;;;;;;;5048715;28;19963;-65
2023/03/17 04:53:43;;;;;;;;;;;;;;;;;;5053665;28;20041;-66
2023/03/17 04:56:09;;;;;;;;;;;;;;;;;;5044024;28;19927;-65
2023/03/17 04:58:35;;;;;;;;;;;;;;;;;;5046663;28;19920;-65
2023/03/17 05:01:02;;;;;;;;;;;;;;;;;;5061798;28;19959;-66
2023/03/17 05:03:29;;;;;;;;;;;;;;;;;;5071550;28;20007;-65
2023/03/17 05:05:55;;;;;;;;;;;;;;;;;;5070282;28;20266;-65
2023/03/17 05:08:20;;;;;;;;;;;;;;;;;;5049286;28;19924;-65
2023/03/17 05:10:46;;;;;;;;;;;;;;;;;;5068805;28;19953;-65
2023/03/17 05:13:12;;;;;;;;;;;;;;;;;;5070381;28;19921;-65
2023/03/17 05:15:38;;;;;;;;;;;;;;;;;;5043386;28;20705;-64
2023/03/17 05:18:04;;;;;;;;;;;;;;;;;;5058999;28;19942;-65
2023/03/17 05:20:30;;;;;;;;;;;;;;;;;;5070333;28;19924;-65
2023/03/17 05:22:56;;;;;;;;;;;;;;;;;;5053025;28;19974;-66
2023/03/17 05:25:22;;;;;;;;;;;;;;;;;;5071453;28;19929;-66
2023/03/17 05:27:48;;;;;;;;;;;;;;;;;;5057261;28;19925;-66
2023/03/17 05:30:14;;;;;;;;;;;;;;;;;;5033376;28;19921;-66
2023/03/17 05:32:40;;;;;;;;;;;;;;;;;;5040919;28;19921;-65
2023/03/17 05:35:06;;;;;;;;;;;;;;;;;;5036721;28;19990;-65
2023/03/17 05:37:32;;;;;;;;;;;;;;;;;;5057875;28;20354;-65
2023/03/17 05:39:58;;;;;;;;;;;;;;;;;;5038163;28;19924;-65
2023/03/17 05:42:25;;;;;;;;;;;;;;;;;;5050690;28;20019;-66
2023/03/17 05:44:51;;;;;;;;;;;;;;;;;;5065238;28;19925;-65
2023/03/17 05:47:16;;;;;;;;;;;;;;;;;;5066890;28;19921;-65
2023/03/17 05:49:42;;;;;;;;;;;;;;;;;;5064586;28;19920;-65
2023/03/17 05:52:08;;;;;;;;;;;;;;;;;;5055792;28;19924;-65
2023/03/17 05:54:35;;;;;;;;;;;;;;;;;;5072667;28;19924;-65
2023/03/17 05:57:00;;;;;;;;;;;;;;;;;;5070798;28;19920;-65
2023/03/17 05:59:26;;;;;;;;;;;;;;;;;;5054967;28;19925;-66
2023/03/17 06:01:52;;;;;;;;;;;;;;;;;;5068684;28;19964;-65
2023/03/17 06:04:18;;;;;;;;;;;;;;;;;;5065363;28;19931;-65
2023/03/17 06:06:45;;;;;;;;;;;;;;;;;;5069415;28;19932;-65
2023/03/17 06:09:11;;;;;;;;;;;;;;;;;;5048063;28;19960;-66
2023/03/17 06:11:37;;;;;;;;;;;;;;;;;;5068840;28;19968;-66
2023/03/17 06:14:03;;;;;;;;;;;;;;;;;;5054902;28;20459;-65
2023/03/17 06:16:31;;;;;;;;;;;;;;;;;;5064757;28;19956;-66
2023/03/17 06:18:57;;;;;;;;;;;;;;;;;;5080421;22;20023;-62
2023/03/17 06:21:23;;;;;;;;;;;;;;;;;;5072601;28;20012;-62
2023/03/17 06:23:49;;;;;;;;;;;;;;;;;;5071579;28;20268;-62
2023/03/17 06:26:15;;;;;;;;;;;;;;;;;;5068700;28;19929;-62
2023/03/17 06:28:41;;;;;;;;;;;;;;;;;;5053341;28;19925;-62
2023/03/17 06:31:07;;;;;;;;;;;;;;;;;;5071799;28;20374;-62
2023/03/17 06:33:34;;;;;;;;;;;;;;;;;;5071591;28;19921;-62
2023/03/17 06:36:00;;;;;;;;;;;;;;;;;;5065342;28;19920;-62
2023/03/17 06:38:26;;;;;;;;;;;;;;;;;;5061861;28;19971;-62
2023/03/17 06:40:52;;;;;;;;;;;;;;;;;;5063777;28;20353;-62
2023/03/17 06:43:18;;;;;;;;;;;;;;;;;;5069533;28;20007;-62
2023/03/17 06:45:44;;;;;;;;;;;;;;;;;;5071134;28;19924;-62
2023/03/17 06:48:10;;;;;;;;;;;;;;;;;;5071696;28;20000;-63
2023/03/17 06:50:36;;;;;;;;;;;;;;;;;;5072512;28;19929;-63
2023/03/17 06:53:02;;;;;;;;;;;;;;;;;;5070622;28;20421;-62
2023/03/17 06:55:27;;;;;;;;;;;;;;;;;;5071612;28;19970;-63
2023/03/17 06:57:53;;;;;;;;;;;;;;;;;;5065672;28;19927;-63
2023/03/17 07:00:19;;;;;;;;;;;;;;;;;;5063571;28;19968;-63
2023/03/17 07:02:46;;;;;;;;;;;;;;;;;;5061256;28;19924;-63
2023/03/17 07:05:12;;;;;;;;;;;;;;;;;;5050997;28;20401;-63
2023/03/17 07:07:38;;;;;;;;;;;;;;;;;;5044186;28;19924;-69
2023/03/17 07:10:04;;;;;;;;;;;;;;;;;;5045713;28;19977;-63
2023/03/17 07:12:31;;;;;;;;;;;;;;;;;;5067419;28;19939;-63
2023/03/17 07:14:58;;;;;;;;;;;;;;;;;;5070803;28;19921;-63
2023/03/17 07:17:24;;;;;;;;;;;;;;;;;;5038421;28;19939;-63
2023/03/17 07:19:51;;;;;;;;;;;;;;;;;;5063939;28;19931;-63
2023/03/17 07:22:17;;;;;;;;;;;;;;;;;;5071128;28;20004;-63
2023/03/17 07:24:43;;;;;;;;;;;;;;;;;;5063632;28;19946;-62
2023/03/17 07:27:09;;;;;;;;;;;;;;;;;;5069158;28;20420;-64
2023/03/17 07:29:35;;;;;;;;;;;;;;;;;;5070620;28;19921;-63
2023/03/17 07:32:04;;;;;;;;;;;;;;;;;;5042341;28;19920;-63
2023/03/17 07:34:30;;;;;;;;;;;;;;;;;;5044897;28;19934;-63
2023/03/17 07:36:55;;;;;;;;;;;;;;;;;;5062887;28;19928;-63
2023/03/17 07:39:21;;;;;;;;;;;;;;;;;;5060416;28;19921;-63
2023/03/17 07:41:51;;;;;;;;;;;;;;;;;;5063229;28;19920;-63
2023/03/17 07:44:18;;;;;;;;;;;;;;;;;;5069794;28;19977;-64
2023/03/17 07:46:45;;;;;;;;;;;;;;;;;;5042464;28;19928;-63
2023/03/17 07:49:11;;;;;;;;;;;;;;;;;;5049009;28;20405;-63
2023/03/17 07:51:37;;;;;;;;;;;;;;;;;;5052439;28;19967;-63
2023/03/17 07:54:04;;;;;;;;;;;;;;;;;;5069510;28;20471;-63
2023/03/17 07:56:30;;;;;;;;;;;;;;;;;;5065508;28;19928;-63
2023/03/17 07:58:57;;;;;;;;;;;;;;;;;;5056369;28;19925;-63
2023/03/17 08:01:24;;;;;;;;;;;;;;;;;;5064839;28;19925;-63
2023/03/17 08:03:50;;;;;;;;;;;;;;;;;;5069807;28;19987;-63
2023/03/17 08:06:16;;;;;;;;;;;;;;;;;;5050424;28;19987;-63
2023/03/17 08:08:42;;;;;;;;;;;;;;;;;;5062365;28;19920;-63
2023/03/17 08:11:08;;;;;;;;;;;;;;;;;;5060262;28;20125;-63
2023/03/17 08:13:34;;;;;;;;;;;;;;;;;;5063134;28;20286;-63
2023/03/17 08:16:00;;;;;;;;;;;;;;;;;;5062723;28;19941;-63
2023/03/17 08:18:26;;;;;;;;;;;;;;;;;;5046576;28;19936;-63
2023/03/17 08:20:52;;;;;;;;;;;;;;;;;;5059898;28;19928;-63
2023/03/17 08:23:18;;;;;;;;;;;;;;;;;;5067537;28;20011;-63
2023/03/17 08:25:44;;;;;;;;;;;;;;;;;;5048376;28;19931;-63
2023/03/17 08:28:10;;;;;;;;;;;;;;;;;;5064542;28;19931;-63
2023/03/17 08:30:37;;;;;;;;;;;;;;;;;;5048705;28;19920;-63
2023/03/17 08:33:02;;;;;;;;;;;;;;;;;;5070034;28;19927;-63
2023/03/17 08:35:29;;;;;;;;;;;;;;;;;;5063494;28;19920;-63
2023/03/17 08:37:55;;;;;;;;;;;;;;;;;;5054260;28;19986;-63
2023/03/17 08:40:21;;;;;;;;;;;;;;;;;;5056502;28;19957;-63
2023/03/17 08:42:47;;;;;;;;;;;;;;;;;;5067322;28;19927;-63
2023/03/17 08:45:13;;;;;;;;;;;;;;;;;;5058946;28;19935;-65
2023/03/17 08:47:39;;;;;;;;;;;;;;;;;;5061561;28;20573;-63
2023/03/17 08:50:05;;;;;;;;;;;;;;;;;;5050931;28;19924;-63
2023/03/17 08:52:31;;;;;;;;;;;;;;;;;;5067964;28;19928;-63
2023/03/17 08:54:57;;;;;;;;;;;;;;;;;;5042787;28;19955;-63
2023/03/17 08:57:23;;;;;;;;;;;;;;;;;;5068994;28;20296;-63
2023/03/17 08:59:49;;;;;;;;;;;;;;;;;;5059481;28;19927;-63
2023/03/17 09:02:15;;;;;;;;;;;;;;;;;;5048176;28;19997;-63
2023/03/17 09:04:41;;;;;;;;;;;;;;;;;;5063580;28;20354;-64
2023/03/17 09:07:07;;;;;;;;;;;;;;;;;;5065425;28;19966;-64
2023/03/17 09:09:34;;;;;;;;;;;;;;;;;;5069135;28;19956;-64
2023/03/17 09:12:00;;;;;;;;;;;;;;;;;;5069421;28;19960;-64
2023/03/17 09:14:26;;;;;;;;;;;;;;;;;;5066955;28;19982;-63
2023/03/17 09:16:52;;;;;;;;;;;;;;;;;;5067878;28;19924;-64
2023/03/17 09:19:18;;;;;;;;;;;;;;;;;;5069954;28;19924;-64
2023/03/17 09:21:46;;;;;;;;;;;;;;;;;;5071685;28;22252;-64
2023/03/17 09:24:12;;;;;;;;;;;;;;;;;;5070132;28;20390;-63
2023/03/17 09:26:38;;;;;;;;;;;;;;;;;;5070321;28;20011;-65
2023/03/17 09:29:04;;;;;;;;;;;;;;;;;;5061687;28;20042;-63
2023/03/17 09:31:30;;;;;;;;;;;;;;;;;;5066685;28;20376;-63
2023/03/17 09:33:56;;;;;;;;;;;;;;;;;;5069628;28;19924;-64
2023/03/17 09:36:23;;;;;;;;;;;;;;;;;;5052615;28;19927;-63
2023/03/17 09:38:50;;;;;;;;;;;;;;;;;;5071842;28;19921;-64
2023/03/17 09:41:18;;;;;;;;;;;;;;;;;;5060553;28;20023;-63
2023/03/17 09:43:44;;;;;;;;;;;;;;;;;;5069360;28;19990;-63
2023/03/17 09:46:11;;;;;;;;;;;;;;;;;;5069051;28;20385;-63
2023/03/17 09:48:37;;;;;;;;;;;;;;;;;;5059617;28;19956;-63
2023/03/17 09:51:03;;;;;;;;;;;;;;;;;;5055249;28;20293;-63
2023/03/17 09:53:32;;;;;;;;;;;;;;;;;;5069012;28;19921;-63
2023/03/17 09:55:58;;;;;;;;;;;;;;;;;;5063830;28;19927;-63
2023/03/17 09:58:25;;;;;;;;;;;;;;;;;;5069809;28;20274;-64
2023/03/17 10:00:50;;;;;;;;;;;;;;;;;;5069311;28;20341;-63
2023/03/17 10:03:17;;;;;;;;;;;;;;;;;;5051876;28;19960;-63
2023/03/17 10:05:43;;;;;;;;;;;;;;;;;;5068992;28;19928;-63
2023/03/17 10:08:09;;;;;;;;;;;;;;;;;;5067072;28;19920;-63
2023/03/17 10:10:35;;;;;;;;;;;;;;;;;;5068296;28;19935;-64
2023/03/17 10:13:02;;;;;;;;;;;;;;;;;;5051521;28;19932;-63
2023/03/17 10:15:27;;;;;;;;;;;;;;;;;;5066082;28;19932;-63
2023/03/17 10:17:53;;;;;;;;;;;;;;;;;;5067367;28;19920;-63
2023/03/17 10:20:19;;;;;;;;;;;;;;;;;;5071538;28;20416;-63
2023/03/17 10:22:46;;;;;;;;;;;;;;;;;;5068677;28;19963;-63
2023/03/17 10:25:13;;;;;;;;;;;;;;;;;;5065989;28;19928;-63
2023/03/17 10:27:39;;;;;;;;;;;;;;;;;;5072947;28;19920;-63
2023/03/17 10:30:05;;;;;;;;;;;;;;;;;;5068069;28;20003;-64
2023/03/17 10:32:31;;;;;;;;;;;;;;;;;;5066281;28;19931;-63
2023/03/17 10:34:57;;;;;;;;;;;;;;;;;;5074202;28;19927;-62
2023/03/17 10:37:23;;;;;;;;;;;;;;;;;;5056177;28;20281;-63
2023/03/17 10:39:49;;;;;;;;;;;;;;;;;;5054878;28;19921;-63
2023/03/17 10:42:15;;;;;;;;;;;;;;;;;;5070815;28;19920;-63
2023/03/17 10:44:41;;;;;;;;;;;;;;;;;;5051719;28;19942;-62
2023/03/17 10:47:07;;;;;;;;;;;;;;;;;;5048987;28;20385;-61
2023/03/17 10:49:33;;;;;;;;;;;;;;;;;;5053074;28;19939;-62
2023/03/17 10:51:59;;;;;;;;;;;;;;;;;;5087020;28;19921;-62
2023/03/17 10:54:25;;;;;;;;;;;;;;;;;;5072269;28;20301;-62
2023/03/17 10:56:51;;;;;;;;;;;;;;;;;;5068433;28;19936;-62
2023/03/17 10:59:17;;;;;;;;;;;;;;;;;;5068791;28;20453;-62
2023/03/17 11:01:43;;;;;;;;;;;;;;;;;;5063446;28;19990;-62
2023/03/17 11:04:09;;;;;;;;;;;;;;;;;;5069111;28;19946;-63
2023/03/17 11:06:35;;;;;;;;;;;;;;;;;;5048317;28;19924;-62
2023/03/17 11:09:01;;;;;;;;;;;;;;;;;;5064742;28;20435;-67
2023/03/17 11:11:27;;;;;;;;;;;;;;;;;;5072861;28;19921;-66
2023/03/17 11:13:53;;;;;;;;;;;;;;;;;;5073629;28;19920;-66
2023/03/17 11:16:20;;;;;;;;;;;;;;;;;;5055312;28;20490;-66
2023/03/17 11:18:47;;;;;;;;;;;;;;;;;;5073180;28;19935;-67
2023/03/17 11:21:13;;;;;;;;;;;;;;;;;;5073203;28;20016;-66
2023/03/17 11:23:39;;;;;;;;;;;;;;;;;;5055131;28;20007;-67
2023/03/17 11:26:05;;;;;;;;;;;;;;;;;;5071766;28;19925;-67
2023/03/17 11:28:31;;;;;;;;;;;;;;;;;;5073289;28;20082;-67
2023/03/17 11:30:57;;;;;;;;;;;;;;;;;;5073176;28;19973;-67
2023/03/17 11:33:23;;;;;;;;;;;;;;;;;;5073060;28;19920;-67
2023/03/17 11:35:51;;;;;;;;;;;;;;;;;;5073152;28;19931;-68
2023/03/17 11:38:17;;;;;;;;;;;;;;;;;;5072040;28;19924;-67
2023/03/17 11:40:43;;;;;;;;;;;;;;;;;;5072898;28;19928;-67
2023/03/17 11:43:09;;;;;;;;;;;;;;;;;;5071615;28;19944;-65
2023/03/17 11:45:36;;;;;;;;;;;;;;;;;;5038152;28;19924;-66
2023/03/17 11:48:02;;;;;;;;;;;;;;;;;;5054693;28;19926;-66
2023/03/17 11:50:28;;;;;;;;;;;;;;;;;;5072681;28;19921;-66
2023/03/17 11:52:54;;;;;;;;;;;;;;;;;;5072870;28;19920;-66
2023/03/17 11:55:20;;;;;;;;;;;;;;;;;;5054587;28;20608;-67
2023/03/17 11:57:46;;;;;;;;;;;;;;;;;;5054611;28;19924;-67
2023/03/17 12:00:12;;;;;;;;;;;;;;;;;;5070684;28;19947;-66
2023/03/17 12:02:38;;;;;;;;;;;;;;;;;;5072766;28;19932;-66
2023/03/17 12:05:04;;;;;;;;;;;;;;;;;;5054332;28;19928;-66
2023/03/17 12:07:30;;;;;;;;;;;;;;;;;;5053248;28;20259;-67
2023/03/17 12:09:56;;;;;;;;;;;;;;;;;;5072584;28;19951;-67
2023/03/17 12:12:22;;;;;;;;;;;;;;;;;;5054273;28;19932;-66
2023/03/17 12:14:48;;;;;;;;;;;;;;;;;;5054299;28;19943;-67
2023/03/17 12:17:14;;;;;;;;;;;;;;;;;;5072009;28;19971;-67
2023/03/17 12:19:41;;;;;;;;;;;;;;;;;;5072019;28;19935;-67
2023/03/17 12:22:07;;;;;;;;;;;;;;;;;;5072475;28;19924;-67
2023/03/17 12:24:33;;;;;;;;;;;;;;;;;;5036213;28;20609;-67
2023/03/17 12:26:59;;;;;;;;;;;;;;;;;;5054299;28;20496;-67
2023/03/17 12:29:25;;;;;;;;;;;;;;;;;;5071458;28;19920;-67
2023/03/17 12:31:51;;;;;;;;;;;;;;;;;;5071515;28;20001;-67
2023/03/17 12:34:17;;;;;;;;;;;;;;;;;;5072146;28;20014;-67
2023/03/17 12:36:43;;;;;;;;;;;;;;;;;;5053909;28;20366;-67
2023/03/17 12:39:09;;;;;;;;;;;;;;;;;;5037248;28;19920;-67
2023/03/17 12:41:35;;;;;;;;;;;;;;;;;;5071693;28;19924;-67
2023/03/17 12:44:01;;;;;;;;;;;;;;;;;;5059302;28;19924;-69
2023/03/17 12:46:27;;;;;;;;;;;;;;;;;;5070613;28;19932;-67
2023/03/17 12:48:53;;;;;;;;;;;;;;;;;;5071655;28;19925;-67
2023/03/17 12:51:19;;;;;;;;;;;;;;;;;;5071729;28;20451;-66
2023/03/17 12:53:46;;;;;;;;;;;;;;;;;;5052772;28;19960;-66
2023/03/17 12:56:12;;;;;;;;;;;;;;;;;;5062421;28;20535;-66
2023/03/17 12:58:38;;;;;;;;;;;;;;;;;;5036969;28;19924;-67
2023/03/17 13:01:04;;;;;;;;;;;;;;;;;;5071694;28;19920;-67
2023/03/17 13:03:30;;;;;;;;;;;;;;;;;;5071672;28;20442;-66
2023/03/17 13:05:56;;;;;;;;;;;;;;;;;;5071595;28;19932;-66
2023/03/17 13:08:22;;;;;;;;;;;;;;;;;;5053555;28;19921;-66
2023/03/17 13:10:49;;;;;;;;;;;;;;;;;;5071736;28;19970;-66
2023/03/17 13:13:16;;;;;;;;;;;;;;;;;;5069881;28;19921;-66
2023/03/17 13:15:42;;;;;;;;;;;;;;;;;;5070242;28;19920;-66
2023/03/17 13:18:09;;;;;;;;;;;;;;;;;;5071278;28;19938;-66
2023/03/17 13:20:35;;;;;;;;;;;;;;;;;;5052179;28;19921;-67
2023/03/17 13:23:01;;;;;;;;;;;;;;;;;;5071676;28;19921;-66
2023/03/17 13:25:27;;;;;;;;;;;;;;;;;;5053504;28;19932;-66
2023/03/17 13:27:53;;;;;;;;;;;;;;;;;;5053313;28;20389;-67
2023/03/17 13:30:20;;;;;;;;;;;;;;;;;;5070050;28;19921;-67
2023/03/17 13:32:46;;;;;;;;;;;;;;;;;;5068469;28;19925;-67
2023/03/17 13:35:14;;;;;;;;;;;;;;;;;;5053311;28;19942;-67
2023/03/17 13:37:40;;;;;;;;;;;;;;;;;;5071432;28;19932;-67
2023/03/17 13:40:06;;;;;;;;;;;;;;;;;;5071518;28;19928;-67
2023/03/17 13:42:32;;;;;;;;;;;;;;;;;;5053329;28;19924;-66
2023/03/17 13:44:58;;;;;;;;;;;;;;;;;;5053423;28;19974;-67
2023/03/17 13:47:24;;;;;;;;;;;;;;;;;;5071297;28;19970;-67
2023/03/17 13:49:50;;;;;;;;;;;;;;;;;;5054961;28;20297;-67
2023/03/17 13:52:16;;;;;;;;;;;;;;;;;;5035311;28;19928;-67
2023/03/17 13:54:42;;;;;;;;;;;;;;;;;;5071330;28;19920;-67
2023/03/17 13:57:08;;;;;;;;;;;;;;;;;;5053061;28;19920;-67
2023/03/17 13:59:34;;;;;;;;;;;;;;;;;;5071066;28;19990;-67
2023/03/17 14:02:00;;;;;;;;;;;;;;;;;;5053744;28;19928;-67
2023/03/17 14:04:26;;;;;;;;;;;;;;;;;;5071630;28;19924;-67
2023/03/17 14:06:52;;;;;;;;;;;;;;;;;;5040418;28;20453;-67
2023/03/17 14:09:18;;;;;;;;;;;;;;;;;;5072331;28;19931;-67
2023/03/17 14:11:44;;;;;;;;;;;;;;;;;;5058675;28;19921;-67
2023/03/17 14:14:10;;;;;;;;;;;;;;;;;;5064404;28;19925;-67
2023/03/17 14:16:35;;;;;;;;;;;;;;;;;;5065773;28;20428;-67
2023/03/17 14:19:02;;;;;;;;;;;;;;;;;;5073583;28;19934;-67
2023/03/17 14:21:27;;;;;;;;;;;;;;;;;;5073650;28;20015;-67
2023/03/17 14:23:53;;;;;;;;;;;;;;;;;;5073858;28;20007;-66
2023/03/17 14:26:19;;;;;;;;;;;;;;;;;;5038956;28;20352;-67
2023/03/17 14:28:45;;;;;;;;;;;;;;;;;;5055693;28;19927;-67
2023/03/17 14:31:11;;;;;;;;;;;;;;;;;;5053192;28;19947;-67
2023/03/17 14:33:37;;;;;;;;;;;;;;;;;;5073302;28;20392;-66
2023/03/17 14:36:03;;;;;;;;;;;;;;;;;;5073476;28;19932;-66
2023/03/17 14:38:30;;;;;;;;;;;;;;;;;;5039501;28;19920;-67
2023/03/17 14:40:55;;;;;;;;;;;;;;;;;;5055921;28;20431;-67
2023/03/17 14:43:21;;;;;;;;;;;;;;;;;;5073802;28;19931;-67
2023/03/17 14:45:48;;;;;;;;;;;;;;;;;;5073311;28;19925;-67
2023/03/17 14:48:14;;;;;;;;;;;;;;;;;;5071982;28;19935;-66
2023/03/17 14:50:40;;;;;;;;;;;;;;;;;;5067520;28;20467;-67
2023/03/17 14:53:06;;;;;;;;;;;;;;;;;;5058725;28;19925;-67
2023/03/17 14:55:32;;;;;;;;;;;;;;;;;;5053286;28;19995;-66
2023/03/17 14:57:58;;;;;;;;;;;;;;;;;;5035237;28;19924;-66
2023/03/17 15:00:23;;;;;;;;;;;;;;;;;;5035136;28;19924;-67
2023/03/17 15:02:50;;;;;;;;;;;;;;;;;;5035175;28;20397;-67
2023/03/17 15:05:16;;;;;;;;;;;;;;;;;;5052784;28;19932;-67
2023/03/17 15:07:41;;;;;;;;;;;;;;;;;;5055643;28;19920;-66
2023/03/17 15:10:07;;;;;;;;;;;;;;;;;;5072867;28;19925;-67
2023/03/17 15:12:33;;;;;;;;;;;;;;;;;;5073044;28;20358;-67
2023/03/17 15:14:59;;;;;;;;;;;;;;;;;;5072744;28;19927;-67
2023/03/17 15:17:25;;;;;;;;;;;;;;;;;;5072587;28;19921;-67
2023/03/17 15:19:51;;;;;;;;;;;;;;;;;;5072524;28;20011;-67
2023/03/17 15:22:17;;;;;;;;;;;;;;;;;;5072768;28;19920;-67
2023/03/17 15:24:43;;;;;;;;;;;;;;;;;;5052580;28;19981;-67
2023/03/17 15:27:09;;;;;;;;;;;;;;;;;;5072509;28;19928;-67
2023/03/17 15:29:35;;;;;;;;;;;;;;;;;;5072202;28;20015;-67
2023/03/17 15:32:01;;;;;;;;;;;;;;;;;;5072347;28;20030;-67
2023/03/17 15:34:27;;;;;;;;;;;;;;;;;;5071927;28;20023;-67
2023/03/17 15:36:53;;;;;;;;;;;;;;;;;;5072280;28;20330;-67
2023/03/17 15:39:19;;;;;;;;;;;;;;;;;;5053107;28;19928;-67
2023/03/17 15:41:45;;;;;;;;;;;;;;;;;;5072728;28;19927;-67
2023/03/17 15:44:11;;;;;;;;;;;;;;;;;;5054821;28;19920;-66
2023/03/17 15:46:37;;;;;;;;;;;;;;;;;;5054710;28;19982;-67
2023/03/17 15:49:03;;;;;;;;;;;;;;;;;;5072799;28;20295;-67
2023/03/17 15:51:29;;;;;;;;;;;;;;;;;;5054822;28;19927;-67
2023/03/17 15:53:55;;;;;;;;;;;;;;;;;;5072475;28;19921;-67
2023/03/17 15:56:21;;;;;;;;;;;;;;;;;;5070903;28;19924;-67
2023/03/17 15:58:47;;;;;;;;;;;;;;;;;;5072316;28;19939;-67
2023/03/17 16:01:13;;;;;;;;;;;;;;;;;;5072034;28;19924;-67
2023/03/17 16:03:44;;;;;;;;;;;;;;;;;;5071552;28;19931;-67
2023/03/17 16:06:10;;;;;;;;;;;;;;;;;;5071440;28;20401;-67
2023/03/17 16:08:37;;;;;;;;;;;;;;;;;;5071678;28;20027;-68
2023/03/17 16:11:03;;;;;;;;;;;;;;;;;;5071582;28;20018;-67
2023/03/17 16:13:29;;;;;;;;;;;;;;;;;;5069986;28;20015;-66
2023/03/17 16:15:55;;;;;;;;;;;;;;;;;;5071173;28;19924;-66
2023/03/17 16:18:21;;;;;;;;;;;;;;;;;;5069726;28;19932;-67
2023/03/17 16:20:47;;;;;;;;;;;;;;;;;;5071152;28;19928;-67
2023/03/17 16:23:13;;;;;;;;;;;;;;;;;;5070717;28;20251;-67
2023/03/17 16:25:39;;;;;;;;;;;;;;;;;;5052675;28;20007;-67
2023/03/17 16:28:05;;;;;;;;;;;;;;;;;;5071202;28;19921;-67
2023/03/17 16:30:31;;;;;;;;;;;;;;;;;;5053180;28;19924;-67
2023/03/17 16:32:56;;;;;;;;;;;;;;;;;;5069761;28;20382;-67
2023/03/17 16:35:22;;;;;;;;;;;;;;;;;;5071496;28;19920;-67
2023/03/17 16:37:51;;;;;;;;;;;;;;;;;;5071603;28;19989;-67